createdAt,value
2024-02-19T00:00:10.399Z,1.08
2024-02-19T00:02:37.140Z,1.73
2024-02-19T00:05:05.460Z,4.07
2024-02-19T00:07:33.184Z,2.60
2024-02-19T00:10:00.675Z,0.90
2024-02-19T00:12:27.395Z,1.23
2024-02-19T00:14:54.125Z,0.85
2024-02-19T00:17:20.716Z,1.35
2024-02-19T00:19:47.301Z,3.03
2024-02-19T00:22:14.112Z,0.77
2024-02-19T00:24:40.889Z,1.33
2024-02-19T00:27:08.333Z,0.60
2024-02-19T00:29:35.078Z,0.73
2024-02-19T00:32:01.783Z,1.73
2024-02-19T00:34:28.432Z,0.60
2024-02-19T00:36:55.795Z,1.60
2024-02-19T00:39:22.565Z,0.85
2024-02-19T00:41:49.179Z,0.50
2024-02-19T00:44:15.983Z,1.05
2024-02-19T00:46:42.932Z,0.50
2024-02-19T00:49:09.620Z,0.65
2024-02-19T00:51:36.620Z,2.38
2024-02-19T00:54:03.321Z,2.28
2024-02-19T00:56:29.907Z,0.70
2024-02-19T00:58:56.553Z,0.60
2024-02-19T01:01:23.373Z,1.27
2024-02-19T01:03:50.080Z,0.73
2024-02-19T01:06:16.858Z,1.27
2024-02-19T01:08:43.563Z,0.40
2024-02-19T01:11:11.892Z,1.30
2024-02-19T01:13:40.660Z,0.98
2024-02-19T01:16:07.414Z,0.82
2024-02-19T01:18:34.420Z,0.82
2024-02-19T01:21:01.290Z,0.73
2024-02-19T01:23:27.940Z,0.93
2024-02-19T01:25:54.679Z,1.55
2024-02-19T01:28:21.558Z,0.80
2024-02-19T01:30:48.342Z,3.42
2024-02-19T01:33:15.426Z,0.85
2024-02-19T01:35:42.352Z,2.65
2024-02-19T01:38:08.975Z,1.52
2024-02-19T01:40:35.638Z,0.70
2024-02-19T01:43:03.283Z,0.80
2024-02-19T01:45:30.184Z,1.13
2024-02-19T01:47:59.017Z,0.77
2024-02-19T01:50:28.307Z,1.02
2024-02-19T01:52:57.200Z,3.30
2024-02-19T01:55:24.714Z,4.30
2024-02-19T01:57:52.743Z,1.00
2024-02-19T02:00:21.424Z,3.47
2024-02-19T02:02:48.644Z,1.67
2024-02-19T02:05:15.382Z,1.38
2024-02-19T02:07:42.584Z,1.50
2024-02-19T02:10:09.875Z,1.80
2024-02-19T02:12:37.026Z,1.25
2024-02-19T02:15:04.474Z,4.32
2024-02-19T02:17:31.608Z,1.30
2024-02-19T02:19:58.461Z,1.77
2024-02-19T02:22:25.222Z,3.00
2024-02-19T02:24:51.860Z,0.65
2024-02-19T02:27:18.550Z,1.65
2024-02-19T02:29:45.174Z,0.82
2024-02-19T02:32:11.731Z,1.17
2024-02-19T02:34:38.454Z,2.35
2024-02-19T02:37:05.475Z,1.02
2024-02-19T02:39:32.666Z,1.48
2024-02-19T02:41:59.386Z,2.78
2024-02-19T02:44:26.043Z,2.30
2024-02-19T02:46:52.737Z,2.17
2024-02-19T02:49:19.437Z,3.20
2024-02-19T02:51:46.203Z,3.10
2024-02-19T02:54:12.833Z,4.85
2024-02-19T02:56:39.497Z,1.50
2024-02-19T02:59:06.158Z,2.08
2024-02-19T03:01:33.487Z,2.78
2024-02-19T03:04:00.481Z,6.68
2024-02-19T03:06:27.386Z,4.78
2024-02-19T03:08:54.293Z,1.13
2024-02-19T03:11:21.803Z,0.70
2024-02-19T03:13:48.473Z,1.08
2024-02-19T03:16:18.798Z,1.75
2024-02-19T03:18:47.232Z,1.50
2024-02-19T03:21:16.973Z,2.22
2024-02-19T03:23:53.935Z,0.85
2024-02-19T03:26:34.794Z,2.25
2024-02-19T03:29:13.095Z,2.25
2024-02-19T03:31:40.959Z,0.60
2024-02-19T03:34:08.291Z,1.02
2024-02-19T03:36:34.964Z,0.57
2024-02-19T03:39:01.569Z,0.77
2024-02-19T03:41:28.294Z,0.28
2024-02-19T03:43:54.981Z,0.93
2024-02-19T03:46:21.691Z,0.43
2024-02-19T03:48:48.741Z,0.20
2024-02-19T03:51:15.738Z,0.20
2024-02-19T03:53:42.325Z,0.30
2024-02-19T03:56:09.016Z,0.32
2024-02-19T03:58:36.213Z,0.85
2024-02-19T04:01:05.717Z,0.68
2024-02-19T04:03:34.232Z,0.35
2024-02-19T04:06:00.932Z,1.60
2024-02-19T04:08:27.592Z,0.40
2024-02-19T04:10:54.287Z,1.02
2024-02-19T04:13:21.036Z,0.40
2024-02-19T04:15:47.740Z,1.67
2024-02-19T04:18:14.443Z,1.88
2024-02-19T04:20:41.092Z,0.40
2024-02-19T04:23:07.726Z,0.17
2024-02-19T04:25:34.431Z,0.30
2024-02-19T04:28:01.234Z,1.15
2024-02-19T04:30:27.893Z,0.85
2024-02-19T04:32:54.698Z,1.95
2024-02-19T04:35:21.415Z,2.17
2024-02-19T04:37:48.040Z,0.65
2024-02-19T04:40:15.024Z,2.05
2024-02-19T04:42:41.927Z,1.73
2024-02-19T04:45:08.968Z,2.05
2024-02-19T04:47:35.563Z,2.17
2024-02-19T04:50:02.409Z,0.40
2024-02-19T04:52:29.391Z,1.60
2024-02-19T04:54:56.639Z,1.73
2024-02-19T04:57:23.312Z,2.17
2024-02-19T04:59:49.903Z,2.70
2024-02-19T05:02:16.567Z,0.95
2024-02-19T05:04:43.322Z,2.38
2024-02-19T05:07:10.170Z,0.85
2024-02-19T05:09:37.361Z,1.35
2024-02-19T05:12:04.841Z,3.55
2024-02-19T05:14:31.528Z,2.97
2024-02-19T05:16:58.164Z,2.00
2024-02-19T05:19:25.231Z,1.17
2024-02-19T05:21:52.393Z,1.60
2024-02-19T05:24:19.258Z,2.03
2024-02-19T05:26:45.978Z,1.23
2024-02-19T05:29:12.551Z,2.28
2024-02-19T05:31:39.996Z,2.40
2024-02-19T05:34:07.893Z,2.47
2024-02-19T05:36:35.268Z,3.33
2024-02-19T05:39:02.313Z,1.02
2024-02-19T05:41:29.097Z,3.60
2024-02-19T05:43:55.929Z,5.35
2024-02-19T05:46:23.468Z,3.53
2024-02-19T05:48:50.563Z,4.25
2024-02-19T05:51:17.255Z,1.90
2024-02-19T05:53:43.911Z,4.43
2024-02-19T05:56:10.892Z,2.75
2024-02-19T05:58:43.830Z,3.67
2024-02-19T06:01:10.752Z,3.20
2024-02-19T06:03:37.685Z,2.97
2024-02-19T06:06:04.912Z,6.38
2024-02-19T06:08:32.035Z,9.70
2024-02-19T06:11:00.282Z,1.50
2024-02-19T06:13:27.158Z,4.63
2024-02-19T06:15:54.114Z,4.03
2024-02-19T06:18:21.014Z,1.80
2024-02-19T06:20:48.720Z,3.28
2024-02-19T06:23:16.052Z,2.38
2024-02-19T06:25:44.480Z,2.05
2024-02-19T06:28:11.731Z,10.43
2024-02-19T06:30:39.362Z,5.90
2024-02-19T06:33:06.216Z,5.65
2024-02-19T06:35:33.126Z,2.40
2024-02-19T06:37:59.977Z,1.38
2024-02-19T06:40:27.864Z,4.65
2024-02-19T06:42:55.599Z,0.98
2024-02-19T06:45:22.778Z,3.75
2024-02-19T06:47:50.061Z,3.08
2024-02-19T06:50:16.825Z,3.15
2024-02-19T06:52:46.832Z,3.42
2024-02-19T06:55:15.433Z,4.53
2024-02-19T06:57:42.688Z,4.75
2024-02-19T07:00:11.181Z,2.72
2024-02-19T07:02:38.513Z,1.92
2024-02-19T07:05:07.092Z,3.03
2024-02-19T07:07:34.699Z,2.08
2024-02-19T07:10:01.967Z,2.67
2024-02-19T07:12:28.711Z,2.10
2024-02-19T07:14:56.477Z,3.45
2024-02-19T07:17:23.508Z,3.05
2024-02-19T07:19:50.874Z,2.42
2024-02-19T07:22:17.796Z,1.88
2024-02-19T07:24:44.500Z,1.85
2024-02-19T07:27:11.079Z,1.13
2024-02-19T07:29:37.782Z,0.60
2024-02-19T07:32:04.666Z,1.15
2024-02-19T07:34:31.394Z,2.40
2024-02-19T07:36:58.330Z,1.85
2024-02-19T07:39:25.002Z,1.75
2024-02-19T07:41:51.592Z,1.58
2024-02-19T07:44:18.297Z,2.17
2024-02-19T07:46:45.363Z,2.63
2024-02-19T07:49:12.531Z,1.45
2024-02-19T07:51:39.569Z,1.10
2024-02-19T07:54:06.324Z,1.13
2024-02-19T07:56:33.245Z,4.63
2024-02-19T07:58:59.907Z,1.65
2024-02-19T08:01:26.651Z,1.33
2024-02-19T08:03:53.484Z,1.33
2024-02-19T08:06:20.284Z,1.48
2024-02-19T08:08:46.985Z,1.45
2024-02-19T08:11:14.681Z,1.25
2024-02-19T08:13:44.810Z,0.70
2024-02-19T08:16:11.775Z,2.10
2024-02-19T08:18:39.020Z,3.28
2024-02-19T08:21:06.070Z,3.95
2024-02-19T08:23:32.893Z,3.33
2024-02-19T08:26:00.175Z,2.13
2024-02-19T08:28:26.968Z,2.70
2024-02-19T08:30:53.718Z,1.33
2024-02-19T08:33:20.442Z,2.92
2024-02-19T08:35:47.239Z,4.18
2024-02-19T08:38:13.910Z,6.68
2024-02-19T08:40:40.790Z,1.15
2024-02-19T08:43:11.706Z,2.10
2024-02-19T08:45:41.589Z,3.38
2024-02-19T08:48:08.986Z,2.50
2024-02-19T08:50:36.704Z,2.25
2024-02-19T08:53:03.481Z,1.48
2024-02-19T08:55:31.995Z,5.03
2024-02-19T08:57:58.835Z,10.27
2024-02-19T09:00:25.493Z,6.28
2024-02-19T09:02:52.246Z,3.20
2024-02-19T09:05:21.079Z,3.00
2024-02-19T09:07:48.387Z,2.45
2024-02-19T09:10:15.451Z,3.20
2024-02-19T09:12:42.421Z,3.88
2024-02-19T09:15:09.714Z,2.95
2024-02-19T09:17:36.556Z,7.05
2024-02-19T09:20:05.063Z,6.20
2024-02-19T09:22:31.859Z,3.78
2024-02-19T09:24:58.598Z,3.55
2024-02-19T09:27:25.294Z,1.00
2024-02-19T09:29:51.987Z,3.38
2024-02-19T09:32:18.670Z,2.50
2024-02-19T09:34:45.574Z,1.83
2024-02-19T09:37:12.455Z,2.70
2024-02-19T09:39:40.880Z,3.67
2024-02-19T09:42:10.436Z,3.13
2024-02-19T09:44:37.455Z,2.45
2024-02-19T09:47:04.824Z,4.28
2024-02-19T09:49:32.862Z,6.93
2024-02-19T09:52:02.714Z,9.30
2024-02-19T09:54:30.666Z,3.85
2024-02-19T09:56:58.021Z,1.92
2024-02-19T09:59:25.201Z,1.60
2024-02-19T10:01:52.558Z,4.45
2024-02-19T10:04:21.754Z,7.68
2024-02-19T10:06:49.295Z,2.13
2024-02-19T10:09:16.242Z,2.78
2024-02-19T10:11:42.883Z,3.83
2024-02-19T10:14:11.456Z,2.58
2024-02-19T10:16:38.061Z,1.10
2024-02-19T10:19:06.208Z,3.05
2024-02-19T10:21:33.757Z,3.15
2024-02-19T10:24:00.583Z,2.95
2024-02-19T10:26:27.389Z,5.65
2024-02-19T10:28:55.815Z,1.80
2024-02-19T10:31:22.854Z,5.32
2024-02-19T10:33:49.855Z,4.10
2024-02-19T10:36:19.502Z,6.72
2024-02-19T10:38:47.316Z,1.75
2024-02-19T10:41:14.792Z,3.03
2024-02-19T10:43:41.718Z,3.25
2024-02-19T10:46:08.733Z,3.53
2024-02-19T10:48:36.266Z,2.25
2024-02-19T10:51:06.275Z,4.13
2024-02-19T10:53:32.947Z,4.10
2024-02-19T10:56:19.999Z,2.63
2024-02-19T10:59:07.684Z,2.42
2024-02-19T11:01:39.222Z,2.10
2024-02-19T11:04:18.572Z,3.92
2024-02-19T11:07:00.272Z,1.20
2024-02-19T11:09:34.781Z,3.13
2024-02-19T11:12:03.197Z,3.28
2024-02-19T11:14:34.556Z,1.92
2024-02-19T11:17:02.724Z,4.18
2024-02-19T11:19:30.779Z,2.58
2024-02-19T11:22:05.910Z,1.35
2024-02-19T11:26:59.902Z,3.08
2024-02-19T11:29:33.588Z,2.95
2024-02-19T11:32:08.217Z,1.88
2024-02-19T11:34:35.589Z,3.40
2024-02-19T11:37:07.128Z,2.72
2024-02-19T11:39:34.452Z,3.92
2024-02-19T11:42:02.817Z,5.07
2024-02-19T11:44:31.064Z,1.83
2024-02-19T11:46:59.579Z,4.05
2024-02-19T11:49:27.118Z,1.50
2024-02-19T11:52:01.576Z,1.58
2024-02-19T11:54:34.931Z,1.33
2024-02-19T11:57:06.332Z,4.10
2024-02-19T11:59:39.577Z,1.00
2024-02-19T12:02:07.605Z,3.17
2024-02-19T12:04:41.172Z,2.00
2024-02-19T12:07:10.665Z,4.07
2024-02-19T12:09:38.299Z,2.53
2024-02-19T12:12:05.353Z,1.02
2024-02-19T12:14:32.994Z,1.63
2024-02-19T12:16:59.730Z,0.70
2024-02-19T12:19:27.036Z,4.18
2024-02-19T12:21:54.588Z,2.03
2024-02-19T12:24:21.376Z,2.05
2024-02-19T12:26:47.983Z,1.98
2024-02-19T12:29:14.638Z,6.10
2024-02-19T12:31:41.513Z,0.47
2024-02-19T12:34:08.875Z,1.30
2024-02-19T12:36:36.658Z,3.53
2024-02-19T12:39:04.080Z,2.53
2024-02-19T12:41:30.825Z,0.63
2024-02-19T12:43:58.023Z,2.28
2024-02-19T12:46:26.044Z,1.67
2024-02-19T12:48:53.010Z,0.63
2024-02-19T12:51:19.924Z,1.98
2024-02-19T12:53:46.690Z,4.43
2024-02-19T12:56:13.560Z,2.28
2024-02-19T12:58:40.435Z,6.13
2024-02-19T13:01:20.263Z,1.42
2024-02-19T13:03:54.580Z,1.45
2024-02-19T13:06:21.605Z,5.00
2024-02-19T13:08:48.900Z,3.10
2024-02-19T13:11:15.783Z,1.70
2024-02-19T13:13:43.017Z,2.75
2024-02-19T13:16:09.913Z,1.65
2024-02-19T13:18:39.769Z,0.60
2024-02-19T13:21:06.440Z,3.88
2024-02-19T13:23:33.100Z,2.00
2024-02-19T13:26:02.241Z,7.80
2024-02-19T13:28:29.094Z,5.47
2024-02-19T13:30:56.497Z,0.52
2024-02-19T13:33:23.614Z,2.53
2024-02-19T13:35:50.265Z,5.65
2024-02-19T13:38:18.390Z,4.47
2024-02-19T13:40:45.380Z,5.05
2024-02-19T13:43:12.651Z,2.58
2024-02-19T13:46:02.792Z,3.30
2024-02-19T13:48:30.537Z,2.05
2024-02-19T13:50:59.262Z,2.13
2024-02-19T13:53:27.916Z,2.45
2024-02-19T13:55:55.449Z,6.88
2024-02-19T13:58:25.593Z,1.70
2024-02-19T14:00:54.665Z,2.28
2024-02-19T14:03:21.826Z,2.95
2024-02-19T14:05:49.313Z,4.10
2024-02-19T14:08:17.847Z,1.92
2024-02-19T14:10:44.534Z,3.33
2024-02-19T14:13:11.241Z,2.45
2024-02-19T14:15:39.825Z,6.65
2024-02-19T14:18:06.628Z,1.58
2024-02-19T14:20:33.245Z,2.95
2024-02-19T14:22:59.856Z,7.57
2024-02-19T14:25:27.260Z,7.82
2024-02-19T14:27:55.155Z,3.13
2024-02-19T14:30:22.104Z,3.95
2024-02-19T14:32:48.752Z,5.13
2024-02-19T14:35:15.747Z,4.95
2024-02-19T14:37:44.304Z,1.63
2024-02-19T14:40:18.254Z,4.20
2024-02-19T14:42:46.407Z,1.90
2024-02-19T14:45:14.265Z,0.77
2024-02-19T14:47:44.152Z,2.75
2024-02-19T14:50:11.749Z,8.05
2024-02-19T14:52:39.883Z,10.85
2024-02-19T14:55:15.026Z,23.25
2024-02-19T14:57:43.936Z,6.25
2024-02-19T15:00:11.789Z,2.83
2024-02-19T15:02:39.936Z,8.00
2024-02-19T15:05:12.153Z,2.60
2024-02-19T15:07:42.481Z,2.50
2024-02-19T15:10:10.114Z,5.30
2024-02-19T15:12:37.210Z,7.43
2024-02-19T15:15:06.959Z,6.65
2024-02-19T15:17:34.662Z,6.05
2024-02-19T15:20:01.441Z,4.25
2024-02-19T15:22:28.196Z,2.25
2024-02-19T15:24:54.901Z,2.20
2024-02-19T15:27:26.958Z,8.77
2024-02-19T15:29:54.595Z,6.50
2024-02-19T15:32:23.399Z,5.18
2024-02-19T15:34:50.934Z,5.38
2024-02-19T15:37:18.522Z,5.68
2024-02-19T15:39:45.451Z,2.75
2024-02-19T15:42:12.701Z,4.45
2024-02-19T15:44:39.859Z,7.20
2024-02-19T15:47:06.674Z,8.90
2024-02-19T15:49:33.587Z,1.95
2024-02-19T15:52:03.454Z,4.32
2024-02-19T15:54:30.358Z,3.47
2024-02-19T15:56:57.129Z,4.65
2024-02-19T15:59:23.794Z,5.97
2024-02-19T16:01:51.843Z,8.82
2024-02-19T16:04:20.071Z,6.93
2024-02-19T16:06:46.892Z,4.53
2024-02-19T16:09:14.455Z,6.63
2024-02-19T16:11:41.145Z,3.88
2024-02-19T16:14:07.945Z,3.60
2024-02-19T16:16:34.633Z,5.13
2024-02-19T16:19:02.609Z,3.97
2024-02-19T16:21:29.506Z,4.50
2024-02-19T16:23:56.634Z,5.55
2024-02-19T16:26:23.373Z,4.60
2024-02-19T16:28:51.063Z,7.25
2024-02-19T16:31:20.702Z,3.50
2024-02-19T16:33:47.735Z,4.32
2024-02-19T16:36:14.860Z,6.25
2024-02-19T16:38:43.988Z,3.60
2024-02-19T16:41:10.617Z,7.78
2024-02-19T16:43:37.554Z,5.20
2024-02-19T16:46:05.294Z,7.45
2024-02-19T16:48:39.920Z,6.22
2024-02-19T16:51:07.183Z,3.03
2024-02-19T16:53:35.166Z,7.60
2024-02-19T16:56:02.723Z,6.65
2024-02-19T16:58:33.363Z,3.83
2024-02-19T17:01:03.263Z,4.80
2024-02-19T17:03:30.445Z,7.32
2024-02-19T17:05:57.771Z,4.15
2024-02-19T17:08:27.886Z,4.32
2024-02-19T17:10:55.702Z,8.07
2024-02-19T17:13:22.636Z,4.78
2024-02-19T17:15:49.484Z,4.90
2024-02-19T17:18:16.413Z,7.53
2024-02-19T17:20:44.202Z,3.40
2024-02-19T17:23:18.979Z,8.52
2024-02-19T17:25:49.028Z,6.18
2024-02-19T17:28:16.516Z,7.57
2024-02-19T17:30:45.118Z,5.10
2024-02-19T17:33:11.917Z,7.40
2024-02-19T17:35:41.560Z,6.70
2024-02-19T17:38:10.772Z,12.35
2024-02-19T17:40:37.419Z,6.47
2024-02-19T17:43:05.577Z,8.65
2024-02-19T17:45:32.479Z,6.13
2024-02-19T17:47:59.476Z,6.70
2024-02-19T17:50:26.492Z,8.80
2024-02-19T17:52:53.352Z,10.30
2024-02-19T17:55:20.347Z,7.40
2024-02-19T17:57:48.967Z,7.97
2024-02-19T18:00:16.278Z,10.25
2024-02-19T18:02:42.932Z,12.07
2024-02-19T18:05:09.696Z,7.90
2024-02-19T18:07:36.664Z,10.98
2024-02-19T18:10:04.933Z,6.30
2024-02-19T18:12:32.502Z,7.20
2024-02-19T18:14:59.875Z,12.52
2024-02-19T18:17:27.550Z,6.28
2024-02-19T18:19:55.309Z,5.57
2024-02-19T18:22:22.455Z,7.75
2024-02-19T18:24:49.226Z,8.80
2024-02-19T18:27:16.742Z,10.20
2024-02-19T18:29:43.604Z,12.75
2024-02-19T18:32:10.548Z,6.97
2024-02-19T18:34:37.577Z,7.43
2024-02-19T18:37:05.548Z,8.85
2024-02-19T18:39:33.017Z,5.28
2024-02-19T18:42:00.165Z,7.07
2024-02-19T18:44:26.910Z,6.60
2024-02-19T18:46:53.593Z,4.70
2024-02-19T18:49:21.651Z,9.63
2024-02-19T18:51:49.255Z,5.40
2024-02-19T18:54:16.596Z,5.18
2024-02-19T18:56:43.599Z,10.57
2024-02-19T18:59:10.359Z,5.47
2024-02-19T19:01:37.619Z,4.35
2024-02-19T19:04:04.719Z,4.88
2024-02-19T19:06:31.856Z,5.38
2024-02-19T19:09:06.514Z,4.97
2024-02-19T19:11:35.100Z,10.18
2024-02-19T19:14:02.035Z,9.20
2024-02-19T19:16:29.310Z,8.93
2024-02-19T19:18:58.177Z,6.28
2024-02-19T19:21:25.125Z,7.30
2024-02-19T19:23:51.888Z,5.93
2024-02-19T19:26:18.627Z,7.55
2024-02-19T19:28:45.279Z,7.80
2024-02-19T19:31:13.242Z,9.18
2024-02-19T19:33:40.071Z,8.50
2024-02-19T19:36:07.254Z,6.68
2024-02-19T19:38:33.928Z,9.90
2024-02-19T19:41:00.615Z,5.22
2024-02-19T19:43:27.407Z,6.13
2024-02-19T19:45:57.042Z,4.80
2024-02-19T19:48:29.287Z,5.45
2024-02-19T19:50:59.720Z,4.57
2024-02-19T19:53:27.021Z,4.82
2024-02-19T19:55:54.915Z,6.00
2024-02-19T19:58:31.029Z,7.63
2024-02-19T20:01:00.005Z,5.80
2024-02-19T20:03:27.284Z,8.18
2024-02-19T20:05:54.368Z,5.35
2024-02-19T20:08:21.448Z,7.43
2024-02-19T20:10:49.074Z,4.10
2024-02-19T20:13:16.290Z,5.38
2024-02-19T20:15:43.702Z,3.63
2024-02-19T20:18:12.257Z,2.65
2024-02-19T20:20:39.751Z,2.63
2024-02-19T20:23:07.061Z,3.00
2024-02-19T20:25:34.198Z,1.27
2024-02-19T20:28:01.831Z,1.45
2024-02-19T20:30:28.569Z,4.80
2024-02-19T20:32:55.267Z,1.90
2024-02-19T20:35:21.940Z,1.95
2024-02-19T20:37:48.959Z,2.67
2024-02-19T20:40:16.045Z,1.40
2024-02-19T20:42:43.074Z,1.15
2024-02-19T20:45:15.598Z,3.08
2024-02-19T20:47:43.809Z,1.23
2024-02-19T20:50:12.659Z,1.70
2024-02-19T20:52:42.210Z,1.50
2024-02-19T20:55:11.032Z,4.00
2024-02-19T20:57:38.996Z,1.02
2024-02-19T21:00:11.634Z,3.20
2024-02-19T21:02:41.100Z,2.25
2024-02-19T21:05:14.696Z,1.95
2024-02-19T21:07:45.037Z,1.20
2024-02-19T21:10:13.986Z,2.65
2024-02-19T21:12:41.792Z,1.98
2024-02-19T21:15:11.108Z,1.30
2024-02-19T21:17:37.763Z,1.17
2024-02-19T21:20:04.936Z,1.30
2024-02-19T21:22:32.287Z,1.42
2024-02-19T21:25:00.677Z,1.40
2024-02-19T21:27:28.686Z,0.70
2024-02-19T21:29:56.788Z,1.55
2024-02-19T21:32:24.845Z,0.85
2024-02-19T21:34:52.217Z,1.75
2024-02-19T21:37:18.979Z,1.58
2024-02-19T21:39:45.615Z,1.67
2024-02-19T21:42:19.011Z,5.57
2024-02-19T21:44:49.611Z,1.90
2024-02-19T21:47:16.875Z,3.17
2024-02-19T21:49:43.623Z,2.30
2024-02-19T21:52:10.325Z,2.95
2024-02-19T21:54:36.942Z,4.22
2024-02-19T21:57:05.285Z,5.10
2024-02-19T21:59:31.947Z,1.25
2024-02-19T22:01:59.448Z,1.48
2024-02-19T22:04:26.333Z,2.25
2024-02-19T22:06:53.154Z,4.18
2024-02-19T22:09:19.776Z,1.77
2024-02-19T22:11:46.522Z,0.70
2024-02-19T22:14:15.289Z,1.85
2024-02-19T22:16:41.916Z,1.30
2024-02-19T22:19:08.741Z,1.17
2024-02-19T22:21:35.734Z,0.60
2024-02-19T22:24:02.450Z,1.92
2024-02-19T22:26:29.163Z,3.08
2024-02-19T22:28:55.741Z,2.58
2024-02-19T22:31:22.325Z,2.60
2024-02-19T22:33:49.184Z,2.55
2024-02-19T22:36:15.856Z,4.40
2024-02-19T22:38:42.502Z,1.42
2024-02-19T22:41:09.433Z,3.53
2024-02-19T22:43:36.041Z,1.58
2024-02-19T22:46:02.759Z,2.85
2024-02-19T22:48:29.596Z,2.88
2024-02-19T22:50:56.491Z,1.17
2024-02-19T22:53:23.123Z,1.05
2024-02-19T22:55:49.827Z,1.67
2024-02-19T22:58:29.062Z,9.00
2024-02-19T23:00:59.816Z,1.17
2024-02-19T23:03:26.801Z,1.45
2024-02-19T23:05:53.675Z,1.13
2024-02-19T23:08:20.966Z,1.58
2024-02-19T23:10:47.747Z,1.00
2024-02-19T23:13:14.543Z,2.97
2024-02-19T23:15:42.469Z,2.80
2024-02-19T23:18:09.229Z,1.95
2024-02-19T23:20:35.981Z,2.97
2024-02-19T23:23:03.351Z,3.72
2024-02-19T23:25:30.073Z,1.30
2024-02-19T23:27:58.485Z,2.75
2024-02-19T23:30:25.764Z,2.28
2024-02-19T23:32:52.499Z,2.90
2024-02-19T23:35:19.259Z,4.35
2024-02-19T23:37:46.818Z,1.65
2024-02-19T23:40:17.899Z,2.42
2024-02-19T23:42:45.723Z,2.60
2024-02-19T23:45:12.623Z,3.10
2024-02-19T23:47:40.782Z,2.85
2024-02-19T23:50:11.471Z,2.15
2024-02-19T23:52:41.694Z,2.55
2024-02-19T23:55:14.620Z,2.53
2024-02-19T23:57:41.505Z,1.30
